sensor_id;sensor_type;location;lat;lon;timestamp;P1;durP1;ratioP1;P2;durP2;ratioP2
79646;SDS011;69119;41.718;21.786;2023-11-19T00:02:20;3.25;;;1.27;;
79646;SDS011;69119;41.718;21.786;2023-11-19T00:04:46;6.00;;;1.83;;
79646;SDS011;69119;41.718;21.786;2023-11-19T00:07:13;3.90;;;1.25;;
79646;SDS011;69119;41.718;21.786;2023-11-19T00:09:39;14.25;;;1.63;;
79646;SDS011;69119;41.718;21.786;2023-11-19T00:12:06;4.40;;;1.27;;
79646;SDS011;69119;41.718;21.786;2023-11-19T00:16:58;4.15;;;1.70;;
79646;SDS011;69119;41.718;21.786;2023-11-19T00:19:24;7.78;;;3.55;;
79646;SDS011;69119;41.718;21.786;2023-11-19T00:21:51;4.70;;;1.67;;
79646;SDS011;69119;41.718;21.786;2023-11-19T00:24:17;3.85;;;1.38;;
79646;SDS011;69119;41.718;21.786;2023-11-19T00:26:43;5.22;;;1.35;;
79646;SDS011;69119;41.718;21.786;2023-11-19T00:29:10;4.00;;;1.48;;
79646;SDS011;69119;41.718;21.786;2023-11-19T00:31:36;3.75;;;1.55;;
79646;SDS011;69119;41.718;21.786;2023-11-19T00:34:03;3.40;;;1.05;;
79646;SDS011;69119;41.718;21.786;2023-11-19T00:36:31;3.55;;;1.33;;
79646;SDS011;69119;41.718;21.786;2023-11-19T00:38:57;3.88;;;1.45;;
79646;SDS011;69119;41.718;21.786;2023-11-19T00:41:23;3.45;;;1.50;;
79646;SDS011;69119;41.718;21.786;2023-11-19T00:43:50;4.90;;;2.88;;
79646;SDS011;69119;41.718;21.786;2023-11-19T00:46:16;3.97;;;1.65;;
79646;SDS011;69119;41.718;21.786;2023-11-19T00:48:42;3.78;;;1.42;;
79646;SDS011;69119;41.718;21.786;2023-11-19T00:51:08;3.53;;;1.63;;
79646;SDS011;69119;41.718;21.786;2023-11-19T00:53:37;3.83;;;1.67;;
79646;SDS011;69119;41.718;21.786;2023-11-19T00:56:03;5.30;;;1.25;;
79646;SDS011;69119;41.718;21.786;2023-11-19T00:58:29;3.55;;;1.13;;
79646;SDS011;69119;41.718;21.786;2023-11-19T01:00:55;4.10;;;1.30;;
79646;SDS011;69119;41.718;21.786;2023-11-19T01:03:22;3.42;;;1.20;;
79646;SDS011;69119;41.718;21.786;2023-11-19T01:05:48;4.07;;;2.67;;
79646;SDS011;69119;41.718;21.786;2023-11-19T01:08:15;3.85;;;1.42;;
79646;SDS011;69119;41.718;21.786;2023-11-19T01:10:41;4.43;;;1.33;;
79646;SDS011;69119;41.718;21.786;2023-11-19T01:13:07;4.80;;;1.80;;
79646;SDS011;69119;41.718;21.786;2023-11-19T01:15:33;3.20;;;1.20;;
79646;SDS011;69119;41.718;21.786;2023-11-19T01:18:00;4.18;;;2.67;;
79646;SDS011;69119;41.718;21.786;2023-11-19T01:20:29;3.65;;;1.25;;
79646;SDS011;69119;41.718;21.786;2023-11-19T01:22:56;3.75;;;1.08;;
79646;SDS011;69119;41.718;21.786;2023-11-19T01:25:22;5.28;;;0.98;;
79646;SDS011;69119;41.718;21.786;2023-11-19T01:27:48;3.83;;;2.50;;
79646;SDS011;69119;41.718;21.786;2023-11-19T01:30:15;4.47;;;1.88;;
79646;SDS011;69119;41.718;21.786;2023-11-19T01:32:41;3.22;;;1.08;;
79646;SDS011;69119;41.718;21.786;2023-11-19T01:35:07;3.60;;;1.52;;
79646;SDS011;69119;41.718;21.786;2023-11-19T01:37:33;4.10;;;2.33;;
79646;SDS011;69119;41.718;21.786;2023-11-19T01:40:00;3.20;;;1.30;;
79646;SDS011;69119;41.718;21.786;2023-11-19T01:42:29;3.25;;;1.33;;
79646;SDS011;69119;41.718;21.786;2023-11-19T01:44:58;3.88;;;1.48;;
79646;SDS011;69119;41.718;21.786;2023-11-19T01:47:25;3.58;;;1.80;;
79646;SDS011;69119;41.718;21.786;2023-11-19T01:49:51;4.25;;;1.60;;
79646;SDS011;69119;41.718;21.786;2023-11-19T01:52:18;3.80;;;2.55;;
79646;SDS011;69119;41.718;21.786;2023-11-19T01:54:44;3.00;;;0.82;;
79646;SDS011;69119;41.718;21.786;2023-11-19T01:57:10;4.03;;;1.55;;
79646;SDS011;69119;41.718;21.786;2023-11-19T01:59:37;3.88;;;1.33;;
79646;SDS011;69119;41.718;21.786;2023-11-19T02:02:03;3.63;;;1.52;;
79646;SDS011;69119;41.718;21.786;2023-11-19T02:04:30;4.53;;;2.92;;
79646;SDS011;69119;41.718;21.786;2023-11-19T02:06:57;2.78;;;1.27;;
79646;SDS011;69119;41.718;21.786;2023-11-19T02:14:19;3.78;;;1.90;;
79646;SDS011;69119;41.718;21.786;2023-11-19T02:16:48;3.80;;;1.38;;
79646;SDS011;69119;41.718;21.786;2023-11-19T02:19:14;4.13;;;1.98;;
79646;SDS011;69119;41.718;21.786;2023-11-19T02:21:40;3.33;;;1.55;;
79646;SDS011;69119;41.718;21.786;2023-11-19T02:24:07;4.22;;;1.25;;
79646;SDS011;69119;41.718;21.786;2023-11-19T02:29:03;3.03;;;1.20;;
79646;SDS011;69119;41.718;21.786;2023-11-19T02:31:31;3.75;;;1.27;;
79646;SDS011;69119;41.718;21.786;2023-11-19T02:33:59;3.58;;;1.63;;
79646;SDS011;69119;41.718;21.786;2023-11-19T02:36:27;3.35;;;1.60;;
79646;SDS011;69119;41.718;21.786;2023-11-19T02:38:53;3.75;;;1.38;;
79646;SDS011;69119;41.718;21.786;2023-11-19T02:41:20;4.97;;;1.75;;
79646;SDS011;69119;41.718;21.786;2023-11-19T02:43:46;3.60;;;1.08;;
79646;SDS011;69119;41.718;21.786;2023-11-19T02:46:13;3.45;;;1.58;;
79646;SDS011;69119;41.718;21.786;2023-11-19T02:48:40;3.30;;;1.08;;
79646;SDS011;69119;41.718;21.786;2023-11-19T02:51:06;4.28;;;1.35;;
79646;SDS011;69119;41.718;21.786;2023-11-19T02:53:36;4.40;;;1.42;;
79646;SDS011;69119;41.718;21.786;2023-11-19T02:56:02;5.32;;;1.77;;
79646;SDS011;69119;41.718;21.786;2023-11-19T02:58:42;4.38;;;2.28;;
79646;SDS011;69119;41.718;21.786;2023-11-19T03:01:09;4.00;;;2.47;;
79646;SDS011;69119;41.718;21.786;2023-11-19T03:03:44;3.85;;;1.58;;
79646;SDS011;69119;41.718;21.786;2023-11-19T03:06:14;3.83;;;0.98;;
79646;SDS011;69119;41.718;21.786;2023-11-19T03:08:41;4.32;;;1.63;;
79646;SDS011;69119;41.718;21.786;2023-11-19T03:11:07;4.70;;;2.28;;
79646;SDS011;69119;41.718;21.786;2023-11-19T03:13:34;3.92;;;1.60;;
79646;SDS011;69119;41.718;21.786;2023-11-19T03:16:00;4.10;;;1.70;;
79646;SDS011;69119;41.718;21.786;2023-11-19T03:18:26;4.53;;;1.58;;
79646;SDS011;69119;41.718;21.786;2023-11-19T03:20:53;6.35;;;2.40;;
79646;SDS011;69119;41.718;21.786;2023-11-19T03:23:19;4.78;;;1.35;;
79646;SDS011;69119;41.718;21.786;2023-11-19T03:25:45;4.35;;;1.55;;
79646;SDS011;69119;41.718;21.786;2023-11-19T03:28:11;4.70;;;1.85;;
79646;SDS011;69119;41.718;21.786;2023-11-19T03:30:38;5.43;;;1.98;;
79646;SDS011;69119;41.718;21.786;2023-11-19T03:33:04;6.13;;;2.03;;
79646;SDS011;69119;41.718;21.786;2023-11-19T03:35:30;5.82;;;1.92;;
79646;SDS011;69119;41.718;21.786;2023-11-19T03:37:58;6.53;;;5.05;;
79646;SDS011;69119;41.718;21.786;2023-11-19T03:40:24;5.18;;;1.77;;
79646;SDS011;69119;41.718;21.786;2023-11-19T03:42:50;5.57;;;2.65;;
79646;SDS011;69119;41.718;21.786;2023-11-19T03:45:16;5.65;;;1.75;;
79646;SDS011;69119;41.718;21.786;2023-11-19T03:47:42;5.63;;;2.33;;
79646;SDS011;69119;41.718;21.786;2023-11-19T03:50:08;4.95;;;1.75;;
79646;SDS011;69119;41.718;21.786;2023-11-19T03:52:35;7.22;;;2.00;;
79646;SDS011;69119;41.718;21.786;2023-11-19T03:55:01;4.30;;;1.73;;
79646;SDS011;69119;41.718;21.786;2023-11-19T03:57:30;4.60;;;2.08;;
79646;SDS011;69119;41.718;21.786;2023-11-19T03:59:56;6.20;;;4.25;;
79646;SDS011;69119;41.718;21.786;2023-11-19T04:02:23;5.35;;;2.38;;
79646;SDS011;69119;41.718;21.786;2023-11-19T04:04:52;5.75;;;3.25;;
79646;SDS011;69119;41.718;21.786;2023-11-19T04:07:19;5.60;;;2.47;;
79646;SDS011;69119;41.718;21.786;2023-11-19T04:09:45;5.25;;;2.17;;
79646;SDS011;69119;41.718;21.786;2023-11-19T04:12:11;5.68;;;2.05;;
79646;SDS011;69119;41.718;21.786;2023-11-19T04:14:37;5.60;;;1.75;;
79646;SDS011;69119;41.718;21.786;2023-11-19T04:17:04;5.43;;;2.08;;
79646;SDS011;69119;41.718;21.786;2023-11-19T04:19:30;6.13;;;2.22;;
79646;SDS011;69119;41.718;21.786;2023-11-19T04:21:57;5.57;;;1.58;;
79646;SDS011;69119;41.718;21.786;2023-11-19T04:24:24;6.97;;;1.95;;
79646;SDS011;69119;41.718;21.786;2023-11-19T04:26:50;4.93;;;2.00;;
79646;SDS011;69119;41.718;21.786;2023-11-19T04:29:17;5.35;;;2.03;;
79646;SDS011;69119;41.718;21.786;2023-11-19T04:31:44;5.70;;;2.15;;
79646;SDS011;69119;41.718;21.786;2023-11-19T04:34:11;5.75;;;2.10;;
79646;SDS011;69119;41.718;21.786;2023-11-19T04:36:37;6.97;;;2.70;;
79646;SDS011;69119;41.718;21.786;2023-11-19T04:41:47;5.40;;;1.75;;
79646;SDS011;69119;41.718;21.786;2023-11-19T04:44:14;5.68;;;2.17;;
79646;SDS011;69119;41.718;21.786;2023-11-19T04:49:09;4.75;;;2.00;;
79646;SDS011;69119;41.718;21.786;2023-11-19T04:54:01;7.38;;;2.25;;
79646;SDS011;69119;41.718;21.786;2023-11-19T04:56:27;7.07;;;2.50;;
79646;SDS011;69119;41.718;21.786;2023-11-19T04:58:53;6.63;;;3.15;;
79646;SDS011;69119;41.718;21.786;2023-11-19T05:01:20;7.63;;;4.07;;
79646;SDS011;69119;41.718;21.786;2023-11-19T05:03:46;6.88;;;3.35;;
79646;SDS011;69119;41.718;21.786;2023-11-19T05:06:12;7.80;;;2.88;;
79646;SDS011;69119;41.718;21.786;2023-11-19T05:08:38;9.45;;;3.92;;
79646;SDS011;69119;41.718;21.786;2023-11-19T05:11:04;18.30;;;6.32;;
79646;SDS011;69119;41.718;21.786;2023-11-19T05:13:31;12.70;;;4.25;;
79646;SDS011;69119;41.718;21.786;2023-11-19T05:15:57;8.80;;;5.38;;
79646;SDS011;69119;41.718;21.786;2023-11-19T05:18:23;8.65;;;3.30;;
79646;SDS011;69119;41.718;21.786;2023-11-19T05:20:49;7.35;;;3.58;;
79646;SDS011;69119;41.718;21.786;2023-11-19T05:23:15;7.32;;;2.97;;
79646;SDS011;69119;41.718;21.786;2023-11-19T05:25:41;7.15;;;3.17;;
79646;SDS011;69119;41.718;21.786;2023-11-19T05:28:07;7.43;;;3.25;;
79646;SDS011;69119;41.718;21.786;2023-11-19T05:30:33;7.78;;;3.08;;
79646;SDS011;69119;41.718;21.786;2023-11-19T05:32:59;9.35;;;3.88;;
79646;SDS011;69119;41.718;21.786;2023-11-19T05:35:26;8.77;;;4.22;;
79646;SDS011;69119;41.718;21.786;2023-11-19T05:37:52;9.45;;;4.00;;
79646;SDS011;69119;41.718;21.786;2023-11-19T05:40:18;11.95;;;5.05;;
79646;SDS011;69119;41.718;21.786;2023-11-19T05:42:45;16.58;;;7.00;;
79646;SDS011;69119;41.718;21.786;2023-11-19T05:45:11;14.68;;;6.43;;
79646;SDS011;69119;41.718;21.786;2023-11-19T05:47:37;14.15;;;5.75;;
79646;SDS011;69119;41.718;21.786;2023-11-19T05:50:04;19.88;;;9.75;;
79646;SDS011;69119;41.718;21.786;2023-11-19T05:52:31;13.98;;;7.50;;
79646;SDS011;69119;41.718;21.786;2023-11-19T05:55:01;13.98;;;6.30;;
79646;SDS011;69119;41.718;21.786;2023-11-19T05:57:30;10.93;;;4.43;;
79646;SDS011;69119;41.718;21.786;2023-11-19T05:59:59;11.73;;;4.72;;
79646;SDS011;69119;41.718;21.786;2023-11-19T06:02:25;10.90;;;3.83;;
79646;SDS011;69119;41.718;21.786;2023-11-19T06:09:44;8.40;;;4.30;;
79646;SDS011;69119;41.718;21.786;2023-11-19T06:12:11;12.25;;;6.68;;
79646;SDS011;69119;41.718;21.786;2023-11-19T06:14:39;16.90;;;8.48;;
79646;SDS011;69119;41.718;21.786;2023-11-19T06:17:06;19.77;;;8.25;;
79646;SDS011;69119;41.718;21.786;2023-11-19T06:19:33;14.38;;;6.65;;
79646;SDS011;69119;41.718;21.786;2023-11-19T06:21:59;18.10;;;7.93;;
79646;SDS011;69119;41.718;21.786;2023-11-19T06:24:25;16.20;;;9.07;;
79646;SDS011;69119;41.718;21.786;2023-11-19T06:26:51;13.98;;;8.35;;
79646;SDS011;69119;41.718;21.786;2023-11-19T06:29:17;13.13;;;7.95;;
79646;SDS011;69119;41.718;21.786;2023-11-19T06:31:44;12.07;;;5.47;;
79646;SDS011;69119;41.718;21.786;2023-11-19T06:34:13;25.33;;;14.90;;
79646;SDS011;69119;41.718;21.786;2023-11-19T06:36:40;61.65;;;27.45;;
79646;SDS011;69119;41.718;21.786;2023-11-19T06:39:06;82.60;;;35.42;;
79646;SDS011;69119;41.718;21.786;2023-11-19T06:41:33;41.75;;;19.20;;
79646;SDS011;69119;41.718;21.786;2023-11-19T06:43:59;26.00;;;11.65;;
79646;SDS011;69119;41.718;21.786;2023-11-19T06:46:25;14.68;;;5.78;;
79646;SDS011;69119;41.718;21.786;2023-11-19T06:48:51;8.68;;;4.35;;
79646;SDS011;69119;41.718;21.786;2023-11-19T06:51:17;9.25;;;4.82;;
79646;SDS011;69119;41.718;21.786;2023-11-19T06:53:43;10.93;;;5.53;;
79646;SDS011;69119;41.718;21.786;2023-11-19T06:56:22;9.45;;;5.07;;
79646;SDS011;69119;41.718;21.786;2023-11-19T06:58:49;16.48;;;9.27;;
79646;SDS011;69119;41.718;21.786;2023-11-19T07:03:43;10.40;;;4.68;;
79646;SDS011;69119;41.718;21.786;2023-11-19T07:06:09;6.10;;;2.33;;
79646;SDS011;69119;41.718;21.786;2023-11-19T07:08:36;7.22;;;3.35;;
79646;SDS011;69119;41.718;21.786;2023-11-19T07:11:03;6.80;;;2.17;;
79646;SDS011;69119;41.718;21.786;2023-11-19T07:13:29;8.77;;;5.03;;
79646;SDS011;69119;41.718;21.786;2023-11-19T07:15:56;7.57;;;3.03;;
79646;SDS011;69119;41.718;21.786;2023-11-19T07:18:23;6.80;;;2.88;;
79646;SDS011;69119;41.718;21.786;2023-11-19T07:20:49;7.10;;;2.80;;
79646;SDS011;69119;41.718;21.786;2023-11-19T07:23:15;5.90;;;3.28;;
79646;SDS011;69119;41.718;21.786;2023-11-19T07:25:44;6.15;;;2.17;;
79646;SDS011;69119;41.718;21.786;2023-11-19T07:28:15;4.03;;;1.17;;
79646;SDS011;69119;41.718;21.786;2023-11-19T07:30:41;6.35;;;2.40;;
79646;SDS011;69119;41.718;21.786;2023-11-19T07:33:08;5.13;;;1.92;;
79646;SDS011;69119;41.718;21.786;2023-11-19T07:35:34;4.68;;;1.50;;
79646;SDS011;69119;41.718;21.786;2023-11-19T07:38:00;5.75;;;2.00;;
79646;SDS011;69119;41.718;21.786;2023-11-19T07:40:26;6.57;;;2.00;;
79646;SDS011;69119;41.718;21.786;2023-11-19T07:42:52;6.32;;;3.75;;
79646;SDS011;69119;41.718;21.786;2023-11-19T07:47:44;5.65;;;3.13;;
79646;SDS011;69119;41.718;21.786;2023-11-19T07:50:11;5.80;;;2.30;;
79646;SDS011;69119;41.718;21.786;2023-11-19T07:52:39;7.32;;;2.22;;
79646;SDS011;69119;41.718;21.786;2023-11-19T07:55:05;5.47;;;1.80;;
79646;SDS011;69119;41.718;21.786;2023-11-19T07:57:31;6.55;;;1.98;;
79646;SDS011;69119;41.718;21.786;2023-11-19T07:59:57;5.15;;;2.00;;
79646;SDS011;69119;41.718;21.786;2023-11-19T08:02:23;4.47;;;1.23;;
79646;SDS011;69119;41.718;21.786;2023-11-19T08:04:50;5.30;;;2.38;;
79646;SDS011;69119;41.718;21.786;2023-11-19T08:07:19;5.75;;;1.63;;
79646;SDS011;69119;41.718;21.786;2023-11-19T08:09:45;6.20;;;3.08;;
79646;SDS011;69119;41.718;21.786;2023-11-19T08:12:12;5.57;;;2.35;;
79646;SDS011;69119;41.718;21.786;2023-11-19T08:14:40;3.80;;;1.60;;
79646;SDS011;69119;41.718;21.786;2023-11-19T08:17:07;5.82;;;2.95;;
79646;SDS011;69119;41.718;21.786;2023-11-19T08:19:33;4.72;;;1.67;;
79646;SDS011;69119;41.718;21.786;2023-11-19T08:21:59;6.45;;;2.88;;
79646;SDS011;69119;41.718;21.786;2023-11-19T08:24:25;4.72;;;1.58;;
79646;SDS011;69119;41.718;21.786;2023-11-19T08:26:51;5.15;;;1.92;;
79646;SDS011;69119;41.718;21.786;2023-11-19T08:29:17;4.45;;;1.05;;
79646;SDS011;69119;41.718;21.786;2023-11-19T08:31:43;5.45;;;1.58;;
79646;SDS011;69119;41.718;21.786;2023-11-19T08:34:10;5.28;;;1.73;;
79646;SDS011;69119;41.718;21.786;2023-11-19T08:36:37;4.57;;;1.17;;
79646;SDS011;69119;41.718;21.786;2023-11-19T08:39:03;5.43;;;1.83;;
79646;SDS011;69119;41.718;21.786;2023-11-19T08:41:29;5.47;;;1.63;;
79646;SDS011;69119;41.718;21.786;2023-11-19T08:43:55;4.68;;;1.58;;
79646;SDS011;69119;41.718;21.786;2023-11-19T08:46:21;5.30;;;1.75;;
79646;SDS011;69119;41.718;21.786;2023-11-19T08:48:47;4.85;;;1.20;;
79646;SDS011;69119;41.718;21.786;2023-11-19T08:51:13;3.95;;;1.60;;
79646;SDS011;69119;41.718;21.786;2023-11-19T08:53:39;4.28;;;1.30;;
79646;SDS011;69119;41.718;21.786;2023-11-19T08:56:05;4.78;;;1.88;;
79646;SDS011;69119;41.718;21.786;2023-11-19T08:58:32;4.55;;;1.88;;
79646;SDS011;69119;41.718;21.786;2023-11-19T09:00:58;6.40;;;2.50;;
79646;SDS011;69119;41.718;21.786;2023-11-19T09:03:24;5.13;;;1.55;;
79646;SDS011;69119;41.718;21.786;2023-11-19T09:05:54;5.78;;;1.70;;
79646;SDS011;69119;41.718;21.786;2023-11-19T09:10:47;3.90;;;1.08;;
79646;SDS011;69119;41.718;21.786;2023-11-19T09:13:13;5.30;;;1.52;;
79646;SDS011;69119;41.718;21.786;2023-11-19T09:15:40;5.15;;;1.58;;
79646;SDS011;69119;41.718;21.786;2023-11-19T09:18:07;5.72;;;2.00;;
79646;SDS011;69119;41.718;21.786;2023-11-19T09:20:33;8.60;;;3.97;;
79646;SDS011;69119;41.718;21.786;2023-11-19T09:23:03;8.60;;;3.22;;
79646;SDS011;69119;41.718;21.786;2023-11-19T09:25:30;5.88;;;1.80;;
79646;SDS011;69119;41.718;21.786;2023-11-19T09:27:56;7.22;;;1.92;;
79646;SDS011;69119;41.718;21.786;2023-11-19T09:30:22;5.32;;;1.50;;
79646;SDS011;69119;41.718;21.786;2023-11-19T09:32:48;6.30;;;2.05;;
79646;SDS011;69119;41.718;21.786;2023-11-19T09:35:14;6.20;;;4.18;;
79646;SDS011;69119;41.718;21.786;2023-11-19T09:37:41;5.25;;;1.80;;
79646;SDS011;69119;41.718;21.786;2023-11-19T09:40:07;4.97;;;1.70;;
79646;SDS011;69119;41.718;21.786;2023-11-19T09:42:38;4.47;;;1.45;;
79646;SDS011;69119;41.718;21.786;2023-11-19T09:45:08;6.68;;;2.17;;
79646;SDS011;69119;41.718;21.786;2023-11-19T09:47:38;6.30;;;2.35;;
79646;SDS011;69119;41.718;21.786;2023-11-19T09:50:05;7.13;;;2.15;;
79646;SDS011;69119;41.718;21.786;2023-11-19T09:52:31;5.43;;;2.35;;
79646;SDS011;69119;41.718;21.786;2023-11-19T09:54:57;6.00;;;2.30;;
79646;SDS011;69119;41.718;21.786;2023-11-19T09:57:23;7.63;;;2.35;;
79646;SDS011;69119;41.718;21.786;2023-11-19T09:59:49;6.53;;;2.40;;
79646;SDS011;69119;41.718;21.786;2023-11-19T10:02:16;6.70;;;2.35;;
79646;SDS011;69119;41.718;21.786;2023-11-19T10:04:42;7.68;;;2.88;;
79646;SDS011;69119;41.718;21.786;2023-11-19T10:07:09;8.82;;;3.90;;
79646;SDS011;69119;41.718;21.786;2023-11-19T10:09:36;7.30;;;2.83;;
79646;SDS011;69119;41.718;21.786;2023-11-19T10:12:02;6.45;;;3.63;;
79646;SDS011;69119;41.718;21.786;2023-11-19T10:14:28;7.40;;;2.22;;
79646;SDS011;69119;41.718;21.786;2023-11-19T10:16:58;6.05;;;1.98;;
79646;SDS011;69119;41.718;21.786;2023-11-19T10:19:29;5.38;;;1.85;;
79646;SDS011;69119;41.718;21.786;2023-11-19T10:21:55;4.80;;;1.80;;
79646;SDS011;69119;41.718;21.786;2023-11-19T10:24:33;5.57;;;2.08;;
79646;SDS011;69119;41.718;21.786;2023-11-19T10:27:00;4.93;;;1.75;;
79646;SDS011;69119;41.718;21.786;2023-11-19T10:29:29;5.35;;;1.88;;
79646;SDS011;69119;41.718;21.786;2023-11-19T10:31:55;6.78;;;2.08;;
79646;SDS011;69119;41.718;21.786;2023-11-19T10:34:25;5.90;;;1.85;;
79646;SDS011;69119;41.718;21.786;2023-11-19T10:36:52;4.55;;;1.15;;
79646;SDS011;69119;41.718;21.786;2023-11-19T10:39:18;6.13;;;1.50;;
79646;SDS011;69119;41.718;21.786;2023-11-19T10:41:45;4.97;;;1.38;;
79646;SDS011;69119;41.718;21.786;2023-11-19T10:44:12;5.25;;;1.55;;
79646;SDS011;69119;41.718;21.786;2023-11-19T10:49:04;6.18;;;2.20;;
79646;SDS011;69119;41.718;21.786;2023-11-19T10:51:31;6.47;;;1.90;;
79646;SDS011;69119;41.718;21.786;2023-11-19T10:53:59;7.10;;;2.25;;
79646;SDS011;69119;41.718;21.786;2023-11-19T10:56:29;6.22;;;1.45;;
79646;SDS011;69119;41.718;21.786;2023-11-19T10:58:55;5.13;;;1.80;;
79646;SDS011;69119;41.718;21.786;2023-11-19T11:01:24;6.05;;;1.40;;
79646;SDS011;69119;41.718;21.786;2023-11-19T11:03:52;5.07;;;1.42;;
79646;SDS011;69119;41.718;21.786;2023-11-19T11:06:19;5.90;;;1.38;;
79646;SDS011;69119;41.718;21.786;2023-11-19T11:08:47;5.88;;;2.90;;
79646;SDS011;69119;41.718;21.786;2023-11-19T11:11:15;7.20;;;2.33;;
79646;SDS011;69119;41.718;21.786;2023-11-19T11:13:42;8.25;;;2.65;;
79646;SDS011;69119;41.718;21.786;2023-11-19T11:16:08;5.88;;;2.05;;
79646;SDS011;69119;41.718;21.786;2023-11-19T11:18:36;6.50;;;2.15;;
79646;SDS011;69119;41.718;21.786;2023-11-19T11:21:07;6.05;;;0.90;;
79646;SDS011;69119;41.718;21.786;2023-11-19T11:23:43;4.85;;;1.27;;
79646;SDS011;69119;41.718;21.786;2023-11-19T11:31:10;6.47;;;1.67;;
79646;SDS011;69119;41.718;21.786;2023-11-19T11:38:37;5.25;;;1.70;;
79646;SDS011;69119;41.718;21.786;2023-11-19T11:41:17;5.15;;;1.70;;
79646;SDS011;69119;41.718;21.786;2023-11-19T11:43:50;4.63;;;1.60;;
79646;SDS011;69119;41.718;21.786;2023-11-19T11:48:59;6.75;;;3.00;;
79646;SDS011;69119;41.718;21.786;2023-11-19T11:59:36;3.63;;;1.25;;
79646;SDS011;69119;41.718;21.786;2023-11-19T12:02:03;7.25;;;2.72;;
79646;SDS011;69119;41.718;21.786;2023-11-19T12:04:29;5.32;;;1.98;;
79646;SDS011;69119;41.718;21.786;2023-11-19T12:09:31;6.45;;;2.00;;
79646;SDS011;69119;41.718;21.786;2023-11-19T12:12:07;4.90;;;1.55;;
79646;SDS011;69119;41.718;21.786;2023-11-19T12:15:07;6.68;;;2.00;;
79646;SDS011;69119;41.718;21.786;2023-11-19T12:20:02;5.97;;;2.22;;
79646;SDS011;69119;41.718;21.786;2023-11-19T12:22:28;6.68;;;3.22;;
79646;SDS011;69119;41.718;21.786;2023-11-19T12:24:54;6.47;;;2.42;;
79646;SDS011;69119;41.718;21.786;2023-11-19T12:27:21;5.63;;;2.25;;
79646;SDS011;69119;41.718;21.786;2023-11-19T12:29:47;7.10;;;2.80;;
79646;SDS011;69119;41.718;21.786;2023-11-19T12:32:14;6.20;;;2.42;;
79646;SDS011;69119;41.718;21.786;2023-11-19T12:34:40;6.70;;;2.60;;
79646;SDS011;69119;41.718;21.786;2023-11-19T12:37:07;5.95;;;2.72;;
79646;SDS011;69119;41.718;21.786;2023-11-19T12:39:35;6.93;;;3.08;;
79646;SDS011;69119;41.718;21.786;2023-11-19T12:42:01;6.57;;;2.58;;
79646;SDS011;69119;41.718;21.786;2023-11-19T12:44:27;6.35;;;2.35;;
79646;SDS011;69119;41.718;21.786;2023-11-19T12:47:00;5.30;;;2.03;;
79646;SDS011;69119;41.718;21.786;2023-11-19T12:49:27;4.32;;;1.25;;
79646;SDS011;69119;41.718;21.786;2023-11-19T12:51:53;7.85;;;2.40;;
79646;SDS011;69119;41.718;21.786;2023-11-19T12:54:19;7.97;;;4.43;;
79646;SDS011;69119;41.718;21.786;2023-11-19T12:56:54;6.32;;;2.58;;
79646;SDS011;69119;41.718;21.786;2023-11-19T12:59:20;6.22;;;2.72;;
79646;SDS011;69119;41.718;21.786;2023-11-19T13:01:58;5.60;;;1.98;;
79646;SDS011;69119;41.718;21.786;2023-11-19T13:04:28;10.65;;;4.50;;
79646;SDS011;69119;41.718;21.786;2023-11-19T13:06:56;13.18;;;7.80;;
79646;SDS011;69119;41.718;21.786;2023-11-19T13:09:22;23.65;;;12.57;;
79646;SDS011;69119;41.718;21.786;2023-11-19T13:11:49;15.60;;;7.82;;
79646;SDS011;69119;41.718;21.786;2023-11-19T13:14:16;23.17;;;11.13;;
79646;SDS011;69119;41.718;21.786;2023-11-19T13:16:42;17.88;;;9.68;;
79646;SDS011;69119;41.718;21.786;2023-11-19T13:19:09;17.42;;;7.75;;
79646;SDS011;69119;41.718;21.786;2023-11-19T13:21:35;17.17;;;7.43;;
79646;SDS011;69119;41.718;21.786;2023-11-19T13:24:03;26.15;;;12.50;;
79646;SDS011;69119;41.718;21.786;2023-11-19T13:26:29;20.55;;;9.23;;
79646;SDS011;69119;41.718;21.786;2023-11-19T13:28:55;20.55;;;10.88;;
79646;SDS011;69119;41.718;21.786;2023-11-19T13:31:22;25.05;;;14.30;;
79646;SDS011;69119;41.718;21.786;2023-11-19T13:33:48;22.38;;;11.27;;
79646;SDS011;69119;41.718;21.786;2023-11-19T13:36:14;21.40;;;12.07;;
79646;SDS011;69119;41.718;21.786;2023-11-19T13:38:40;23.85;;;12.93;;
79646;SDS011;69119;41.718;21.786;2023-11-19T13:41:07;27.33;;;17.08;;
79646;SDS011;69119;41.718;21.786;2023-11-19T13:43:37;31.08;;;20.58;;
79646;SDS011;69119;41.718;21.786;2023-11-19T13:46:03;42.95;;;24.42;;
79646;SDS011;69119;41.718;21.786;2023-11-19T13:48:29;44.45;;;25.52;;
79646;SDS011;69119;41.718;21.786;2023-11-19T13:50:55;39.63;;;23.48;;
79646;SDS011;69119;41.718;21.786;2023-11-19T13:53:22;41.08;;;23.27;;
79646;SDS011;69119;41.718;21.786;2023-11-19T13:55:49;31.05;;;17.27;;
79646;SDS011;69119;41.718;21.786;2023-11-19T13:58:15;31.10;;;15.80;;
79646;SDS011;69119;41.718;21.786;2023-11-19T14:00:41;28.45;;;15.40;;
79646;SDS011;69119;41.718;21.786;2023-11-19T14:03:08;34.65;;;19.95;;
79646;SDS011;69119;41.718;21.786;2023-11-19T14:05:36;26.10;;;14.52;;
79646;SDS011;69119;41.718;21.786;2023-11-19T14:08:03;26.70;;;13.77;;
79646;SDS011;69119;41.718;21.786;2023-11-19T14:10:36;38.63;;;20.80;;
79646;SDS011;69119;41.718;21.786;2023-11-19T14:13:04;53.22;;;32.63;;
79646;SDS011;69119;41.718;21.786;2023-11-19T14:17:56;88.43;;;52.10;;
79646;SDS011;69119;41.718;21.786;2023-11-19T14:20:22;133.90;;;66.28;;
79646;SDS011;69119;41.718;21.786;2023-11-19T14:22:49;123.82;;;65.25;;
79646;SDS011;69119;41.718;21.786;2023-11-19T14:25:16;114.05;;;60.13;;
79646;SDS011;69119;41.718;21.786;2023-11-19T14:27:43;68.10;;;39.45;;
79646;SDS011;69119;41.718;21.786;2023-11-19T14:32:38;49.22;;;27.42;;
79646;SDS011;69119;41.718;21.786;2023-11-19T14:35:05;65.75;;;38.20;;
79646;SDS011;69119;41.718;21.786;2023-11-19T14:37:31;150.65;;;67.75;;
79646;SDS011;69119;41.718;21.786;2023-11-19T14:39:57;109.78;;;57.28;;
79646;SDS011;69119;41.718;21.786;2023-11-19T14:42:24;85.53;;;46.00;;
79646;SDS011;69119;41.718;21.786;2023-11-19T14:44:50;120.20;;;63.55;;
79646;SDS011;69119;41.718;21.786;2023-11-19T14:47:20;112.45;;;55.92;;
79646;SDS011;69119;41.718;21.786;2023-11-19T14:49:46;121.03;;;66.18;;
79646;SDS011;69119;41.718;21.786;2023-11-19T14:52:13;90.90;;;48.00;;
79646;SDS011;69119;41.718;21.786;2023-11-19T14:54:39;109.43;;;57.00;;
79646;SDS011;69119;41.718;21.786;2023-11-19T14:57:05;114.88;;;63.22;;
79646;SDS011;69119;41.718;21.786;2023-11-19T14:59:33;96.75;;;53.60;;
79646;SDS011;69119;41.718;21.786;2023-11-19T15:01:59;97.80;;;52.88;;
79646;SDS011;69119;41.718;21.786;2023-11-19T15:04:28;101.85;;;58.42;;
79646;SDS011;69119;41.718;21.786;2023-11-19T15:06:58;118.10;;;64.20;;
79646;SDS011;69119;41.718;21.786;2023-11-19T15:09:25;129.52;;;69.22;;
79646;SDS011;69119;41.718;21.786;2023-11-19T15:11:53;140.63;;;76.15;;
79646;SDS011;69119;41.718;21.786;2023-11-19T15:14:19;167.50;;;85.07;;
79646;SDS011;69119;41.718;21.786;2023-11-19T15:16:46;165.07;;;86.82;;
79646;SDS011;69119;41.718;21.786;2023-11-19T15:19:12;126.45;;;68.32;;
79646;SDS011;69119;41.718;21.786;2023-11-19T15:21:39;133.23;;;70.70;;
79646;SDS011;69119;41.718;21.786;2023-11-19T15:24:06;127.85;;;65.68;;
79646;SDS011;69119;41.718;21.786;2023-11-19T15:26:33;114.07;;;63.28;;
79646;SDS011;69119;41.718;21.786;2023-11-19T15:28:59;98.18;;;52.72;;
79646;SDS011;69119;41.718;21.786;2023-11-19T15:31:25;98.82;;;52.78;;